Terminal Aerodrome Forecast
Issued by NWS

Home | Current Version | Previous Version | Text Only | Print | Product List | Glossary On
Versions: 1 2 3 4 5 6 7 8 9 10 11 12 13 14 15
000
FTUS41 KGYX 230520
TAFAUG
TAF
KAUG 230520Z 2306/2406 02007KT P6SM BKN090
     FM230800 VRB03KT P6SM SCT250
     FM231500 01007KT P6SM FEW250=

USA.gov is the U.S. government's official web portal to all federal, state and local government web resources and services.